createdAt,value
2017-12-03T00:01:47.740Z,30.98
2017-12-03T00:04:15.290Z,29.48
2017-12-03T00:06:42.832Z,30.33
2017-12-03T00:09:10.311Z,27.85
2017-12-03T00:11:37.766Z,27.48
2017-12-03T00:14:05.223Z,29.95
2017-12-03T00:16:32.699Z,28.50
2017-12-03T00:19:00.153Z,27.75
2017-12-03T00:21:28.387Z,26.62
2017-12-03T00:23:55.942Z,27.92
2017-12-03T00:26:23.403Z,28.60
2017-12-03T00:28:51.652Z,28.38
2017-12-03T00:31:19.921Z,29.10
2017-12-03T00:33:48.163Z,29.48
2017-12-03T00:36:15.729Z,28.80
2017-12-03T00:38:44.076Z,28.83
2017-12-03T00:41:12.320Z,28.35
2017-12-03T00:43:39.868Z,30.17
2017-12-03T00:46:07.424Z,28.62
2017-12-03T00:48:35.656Z,30.95
2017-12-03T00:51:03.164Z,31.85
2017-12-03T00:53:30.619Z,29.77
2017-12-03T00:55:58.107Z,28.83
2017-12-03T00:58:26.527Z,29.15
2017-12-03T01:00:53.999Z,28.60
2017-12-03T01:03:21.470Z,28.95
2017-12-03T01:05:48.927Z,29.48
2017-12-03T01:08:17.906Z,29.52
2017-12-03T01:10:45.373Z,30.98
2017-12-03T01:13:13.604Z,32.42
2017-12-03T01:15:41.072Z,31.10
2017-12-03T01:18:09.516Z,30.45
2017-12-03T01:20:36.985Z,30.40
2017-12-03T01:23:04.504Z,31.10
2017-12-03T01:25:32.012Z,33.03
2017-12-03T01:27:59.472Z,29.58
2017-12-03T01:30:27.027Z,28.73
2017-12-03T01:32:54.497Z,33.10
2017-12-03T01:35:22.021Z,32.78
2017-12-03T01:37:50.259Z,33.22
2017-12-03T01:40:17.819Z,32.15
2017-12-03T01:42:45.296Z,32.85
2017-12-03T01:45:12.765Z,34.20
2017-12-03T01:47:40.513Z,27.92
2017-12-03T01:50:07.980Z,31.77
2017-12-03T01:52:35.535Z,34.10
2017-12-03T01:55:03.012Z,34.00
2017-12-03T01:57:30.476Z,29.65
2017-12-03T01:59:57.968Z,32.00
2017-12-03T02:02:26.291Z,31.77
2017-12-03T02:04:53.704Z,32.55
2017-12-03T02:07:21.159Z,29.02
2017-12-03T02:09:48.628Z,31.62
2017-12-03T02:12:16.188Z,31.70
2017-12-03T02:14:43.656Z,29.70
2017-12-03T02:17:11.176Z,27.15
2017-12-03T02:19:39.436Z,30.50
2017-12-03T02:22:07.667Z,27.45
2017-12-03T02:24:35.136Z,29.12
2017-12-03T02:27:02.623Z,28.83
2017-12-03T02:29:30.130Z,28.42
2017-12-03T02:31:58.356Z,30.05
2017-12-03T02:34:25.832Z,28.33
2017-12-03T02:36:54.064Z,28.50
2017-12-03T02:39:21.543Z,28.12
2017-12-03T02:41:49.765Z,29.73
2017-12-03T02:44:17.240Z,31.20
2017-12-03T02:46:45.472Z,29.10
2017-12-03T02:49:13.972Z,24.48
2017-12-03T02:51:42.217Z,30.98
2017-12-03T02:54:10.432Z,23.58
2017-12-03T02:56:37.945Z,28.20
2017-12-03T02:59:05.392Z,26.30
2017-12-03T03:01:32.905Z,26.12
2017-12-03T03:04:00.404Z,27.40
2017-12-03T03:06:27.892Z,24.02
2017-12-03T03:08:56.127Z,27.60
2017-12-03T03:11:23.688Z,28.23
2017-12-03T03:13:51.944Z,28.05
2017-12-03T03:16:19.408Z,25.40
2017-12-03T03:18:46.936Z,28.05
2017-12-03T03:21:15.188Z,28.48
2017-12-03T03:23:42.733Z,31.83
2017-12-03T03:26:10.192Z,27.77
2017-12-03T03:28:38.736Z,27.98
2017-12-03T03:31:06.293Z,29.05
2017-12-03T03:33:34.548Z,26.80
2017-12-03T03:36:02.096Z,28.38
2017-12-03T03:38:30.336Z,27.70
2017-12-03T03:40:57.807Z,28.27
2017-12-03T03:43:26.063Z,27.67
2017-12-03T03:45:54.276Z,28.20
2017-12-03T03:48:21.760Z,26.73
2017-12-03T03:50:49.208Z,29.73
2017-12-03T03:53:17.456Z,27.67
2017-12-03T03:55:44.904Z,25.95
2017-12-03T03:58:13.124Z,27.67
2017-12-03T04:00:40.700Z,29.25
2017-12-03T04:03:08.920Z,26.90
2017-12-03T04:05:36.399Z,29.27
2017-12-03T04:08:03.883Z,28.75
2017-12-03T04:10:31.389Z,29.35
2017-12-03T04:12:59.611Z,29.45
2017-12-03T04:15:27.189Z,28.20
2017-12-03T04:17:54.644Z,26.25
2017-12-03T04:20:22.883Z,31.85
2017-12-03T04:22:50.348Z,28.48
2017-12-03T04:25:18.589Z,25.37
2017-12-03T04:27:46.064Z,27.85
2017-12-03T04:30:13.528Z,26.17
2017-12-03T04:32:41.612Z,21.25
2017-12-03T04:35:09.122Z,26.90
2017-12-03T04:37:36.575Z,26.75
2017-12-03T04:40:04.056Z,27.65
2017-12-03T04:42:31.518Z,28.77
2017-12-03T04:44:59.733Z,26.55
2017-12-03T04:47:27.220Z,23.45
2017-12-03T04:49:55.445Z,28.00
2017-12-03T04:52:23.003Z,25.62
2017-12-03T04:54:51.268Z,23.75
2017-12-03T04:57:19.493Z,28.25
2017-12-03T04:59:46.996Z,26.27
2017-12-03T05:02:14.457Z,27.67
2017-12-03T05:04:41.912Z,26.85
2017-12-03T05:07:09.396Z,26.60
2017-12-03T05:09:37.642Z,26.37
2017-12-03T05:12:05.907Z,24.12
2017-12-03T05:14:33.456Z,26.33
2017-12-03T05:17:01.695Z,24.87
2017-12-03T05:19:29.156Z,26.08
2017-12-03T05:21:56.692Z,26.65
2017-12-03T05:24:24.238Z,26.23
2017-12-03T05:26:51.788Z,26.37
2017-12-03T05:29:20.101Z,25.80
2017-12-03T05:31:47.572Z,25.40
2017-12-03T05:34:15.127Z,26.73
2017-12-03T05:36:42.588Z,27.37
2017-12-03T05:39:10.821Z,21.52
2017-12-03T05:41:38.384Z,28.08
2017-12-03T05:44:06.641Z,27.08
2017-12-03T05:46:34.100Z,29.63
2017-12-03T05:49:02.325Z,27.48
2017-12-03T05:51:29.803Z,26.80
2017-12-03T05:53:57.434Z,26.80
2017-12-03T05:56:25.704Z,24.60
2017-12-03T05:58:54.210Z,26.48
2017-12-03T06:01:21.700Z,27.92
2017-12-03T06:03:49.961Z,26.08
2017-12-03T06:06:18.220Z,24.15
2017-12-03T06:08:46.443Z,27.25
2017-12-03T06:11:13.909Z,30.40
2017-12-03T06:13:41.388Z,23.58
2017-12-03T06:16:08.853Z,26.10
2017-12-03T06:18:36.308Z,25.80
2017-12-03T06:21:03.801Z,27.87
2017-12-03T06:23:32.047Z,25.27
2017-12-03T06:26:00.268Z,29.42
2017-12-03T06:28:27.748Z,29.25
2017-12-03T06:30:56.009Z,27.10
2017-12-03T06:33:24.235Z,29.87
2017-12-03T06:35:51.695Z,28.15
2017-12-03T06:38:19.186Z,29.52
2017-12-03T06:40:46.693Z,27.20
2017-12-03T06:43:14.915Z,25.58
2017-12-03T06:45:42.404Z,23.73
2017-12-03T06:48:10.662Z,29.08
2017-12-03T06:50:38.943Z,25.23
2017-12-03T06:53:06.453Z,29.15
2017-12-03T06:55:33.996Z,27.62
2017-12-03T06:58:01.548Z,22.42
2017-12-03T07:00:29.768Z,27.52
2017-12-03T07:02:57.236Z,26.60
2017-12-03T07:05:24.709Z,25.00
2017-12-03T07:07:52.183Z,28.35
2017-12-03T07:10:19.649Z,28.92
2017-12-03T07:12:47.212Z,26.30
2017-12-03T07:15:15.477Z,27.87
2017-12-03T07:17:43.740Z,27.62
2017-12-03T07:20:11.968Z,25.35
2017-12-03T07:22:39.424Z,25.37
2017-12-03T07:25:06.892Z,26.25
2017-12-03T07:27:35.136Z,26.27
2017-12-03T07:30:03.409Z,26.87
2017-12-03T07:32:30.944Z,27.33
2017-12-03T07:34:59.220Z,26.85
2017-12-03T07:37:26.744Z,28.00
2017-12-03T07:39:54.975Z,24.12
2017-12-03T07:42:22.445Z,22.85
2017-12-03T07:44:50.668Z,24.98
2017-12-03T07:47:18.136Z,27.05
2017-12-03T07:49:45.612Z,26.55
2017-12-03T07:52:13.133Z,27.42
2017-12-03T07:54:41.351Z,25.90
2017-12-03T07:57:08.828Z,27.35
2017-12-03T07:59:36.379Z,26.40
2017-12-03T08:02:04.611Z,27.33
2017-12-03T08:04:32.180Z,27.05
2017-12-03T08:06:59.640Z,24.33
2017-12-03T08:09:27.099Z,25.77
2017-12-03T08:11:54.568Z,27.95
2017-12-03T08:14:22.032Z,26.12
2017-12-03T08:16:49.591Z,28.38
2017-12-03T08:19:17.852Z,27.65
2017-12-03T08:21:46.077Z,27.13
2017-12-03T08:24:13.564Z,26.95
2017-12-03T08:26:41.867Z,26.17
2017-12-03T08:29:09.354Z,28.33
2017-12-03T08:31:36.896Z,31.27
2017-12-03T08:34:04.452Z,28.90
2017-12-03T08:36:32.673Z,27.52
2017-12-03T08:39:00.144Z,26.75
2017-12-03T08:41:28.378Z,27.37
2017-12-03T08:43:55.847Z,28.80
2017-12-03T08:46:24.079Z,25.25
2017-12-03T08:48:51.589Z,25.30
2017-12-03T08:51:19.075Z,26.62
2017-12-03T08:53:46.632Z,24.17
2017-12-03T08:56:14.900Z,26.83
2017-12-03T08:58:43.155Z,24.87
2017-12-03T09:01:11.392Z,25.35
2017-12-03T09:03:38.852Z,23.62
2017-12-03T09:06:06.401Z,27.85
2017-12-03T09:08:33.858Z,25.48
2017-12-03T09:11:02.096Z,27.70
2017-12-03T09:13:29.561Z,28.25
2017-12-03T09:15:57.804Z,26.15
2017-12-03T09:18:26.060Z,27.80
2017-12-03T09:20:54.296Z,28.70
2017-12-03T09:23:21.863Z,25.30
2017-12-03T09:25:49.324Z,27.35
2017-12-03T09:28:17.564Z,28.73
2017-12-03T09:30:45.824Z,24.00
2017-12-03T09:33:14.048Z,27.48
2017-12-03T09:35:41.633Z,24.73
2017-12-03T09:38:09.868Z,27.83
2017-12-03T09:40:37.324Z,25.33
2017-12-03T09:43:04.796Z,29.73
2017-12-03T09:45:33.016Z,27.90
2017-12-03T09:48:00.571Z,26.40
2017-12-03T09:50:28.120Z,25.77
2017-12-03T09:52:56.356Z,24.00
2017-12-03T09:55:23.924Z,23.33
2017-12-03T09:57:52.190Z,26.98
2017-12-03T10:00:20.431Z,26.08
2017-12-03T10:02:47.896Z,30.70
2017-12-03T10:05:16.149Z,28.00
2017-12-03T10:07:44.371Z,28.33
2017-12-03T10:10:11.949Z,28.55
2017-12-03T10:12:40.172Z,28.33
2017-12-03T10:15:07.640Z,25.52
2017-12-03T10:17:35.880Z,26.02
2017-12-03T10:20:03.459Z,29.73
2017-12-03T10:22:31.687Z,27.02
2017-12-03T10:24:59.136Z,27.45
2017-12-03T10:27:26.600Z,26.17
2017-12-03T10:29:54.859Z,28.45
2017-12-03T10:32:23.100Z,25.60
2017-12-03T10:34:50.560Z,29.00
2017-12-03T10:37:18.787Z,26.73
2017-12-03T10:39:46.260Z,27.70
2017-12-03T10:42:14.557Z,26.42
2017-12-03T10:44:42.780Z,25.35
2017-12-03T10:47:11.014Z,26.30
2017-12-03T10:49:38.492Z,26.27
2017-12-03T10:52:06.754Z,29.63
2017-12-03T10:54:34.976Z,26.10
2017-12-03T10:57:02.544Z,25.50
2017-12-03T10:59:30.777Z,26.90
2017-12-03T11:01:58.238Z,26.33
2017-12-03T11:04:25.704Z,23.77
2017-12-03T11:06:53.950Z,26.55
2017-12-03T11:09:22.212Z,29.25
2017-12-03T11:11:50.523Z,23.33
2017-12-03T11:14:18.293Z,21.33
2017-12-03T11:16:45.752Z,23.42
2017-12-03T11:19:13.225Z,26.67
2017-12-03T11:21:40.694Z,24.52
2017-12-03T11:24:08.252Z,26.27
2017-12-03T11:26:36.483Z,22.35
2017-12-03T11:29:04.041Z,23.73
2017-12-03T11:31:31.502Z,25.42
2017-12-03T11:33:59.749Z,23.77
2017-12-03T11:36:28.027Z,26.60
2017-12-03T11:38:56.276Z,26.23
2017-12-03T11:41:24.692Z,27.98
2017-12-03T11:43:52.231Z,24.42
2017-12-03T11:46:19.729Z,26.55
2017-12-03T11:48:47.960Z,24.02
2017-12-03T11:51:15.520Z,25.33
2017-12-03T11:53:43.783Z,27.25
2017-12-03T11:56:12.014Z,23.58
2017-12-03T11:58:39.472Z,25.80
2017-12-03T12:01:06.944Z,27.35
2017-12-03T12:03:34.473Z,28.15
2017-12-03T12:06:02.728Z,25.73
2017-12-03T12:08:30.993Z,23.60
2017-12-03T12:10:59.256Z,24.08
2017-12-03T12:13:27.504Z,21.00
2017-12-03T12:15:55.038Z,24.17
2017-12-03T12:18:22.595Z,24.15
2017-12-03T12:20:50.060Z,23.70
2017-12-03T12:23:17.519Z,19.48
2017-12-03T12:25:44.989Z,21.92
2017-12-03T12:28:12.455Z,22.60
2017-12-03T12:30:39.922Z,23.42
2017-12-03T12:33:08.164Z,23.40
2017-12-03T12:35:36.388Z,19.80
2017-12-03T12:38:03.863Z,23.80
2017-12-03T12:40:32.104Z,19.92
2017-12-03T12:42:59.571Z,25.30
2017-12-03T12:45:27.844Z,23.45
2017-12-03T12:47:56.093Z,21.42
2017-12-03T12:50:24.321Z,22.13
2017-12-03T12:52:51.796Z,24.00
2017-12-03T12:55:20.028Z,20.95
2017-12-03T12:57:47.494Z,20.50
2017-12-03T13:00:16.675Z,20.70
2017-12-03T13:02:44.936Z,20.80
2017-12-03T13:05:12.455Z,21.60
2017-12-03T13:07:40.684Z,20.05
2017-12-03T13:10:08.142Z,18.98
2017-12-03T13:12:35.631Z,18.80
2017-12-03T13:15:06.021Z,19.17
2017-12-03T13:17:34.264Z,20.85
2017-12-03T13:20:02.521Z,18.25
2017-12-03T13:22:29.985Z,18.92
2017-12-03T13:24:58.338Z,21.65
2017-12-03T13:27:26.557Z,19.30
2017-12-03T13:29:54.120Z,20.85
2017-12-03T13:32:21.588Z,18.27
2017-12-03T13:34:49.109Z,18.10
2017-12-03T13:37:16.636Z,18.60
2017-12-03T13:39:44.884Z,16.42
2017-12-03T13:42:12.435Z,22.15
2017-12-03T13:44:40.667Z,16.30
2017-12-03T13:47:08.248Z,16.48
2017-12-03T13:49:36.528Z,17.37
2017-12-03T13:52:04.157Z,17.85
2017-12-03T13:54:32.396Z,16.67
2017-12-03T13:56:59.952Z,17.58
2017-12-03T13:59:28.184Z,16.15
2017-12-03T14:01:55.756Z,16.95
2017-12-03T14:04:24.016Z,17.10
2017-12-03T14:06:52.283Z,16.60
2017-12-03T14:09:20.523Z,17.75
2017-12-03T14:11:47.980Z,16.50
2017-12-03T14:14:16.219Z,15.05
2017-12-03T14:16:44.452Z,16.00
2017-12-03T14:19:11.907Z,17.87
2017-12-03T14:21:39.384Z,15.50
2017-12-03T14:24:07.609Z,17.80
2017-12-03T14:26:35.076Z,17.58
2017-12-03T14:29:02.560Z,19.33
2017-12-03T14:31:30.168Z,18.30
2017-12-03T14:33:58.391Z,19.92
2017-12-03T14:36:25.868Z,22.55
2017-12-03T14:38:54.091Z,21.02
2017-12-03T14:41:21.561Z,17.62
2017-12-03T14:43:49.109Z,19.55
2017-12-03T14:46:16.584Z,21.62
2017-12-03T14:48:44.047Z,19.85
2017-12-03T14:51:11.505Z,17.42
2017-12-03T14:53:39.084Z,21.50
2017-12-03T14:56:07.311Z,19.52
2017-12-03T14:58:34.788Z,20.67
2017-12-03T15:01:03.032Z,19.77
2017-12-03T15:03:30.676Z,18.70
2017-12-03T15:05:58.132Z,21.83
2017-12-03T15:08:25.675Z,20.17
2017-12-03T15:10:53.920Z,20.85
2017-12-03T15:13:21.479Z,20.80
2017-12-03T15:15:49.744Z,20.67
2017-12-03T15:18:17.977Z,21.25
2017-12-03T15:20:45.544Z,21.27
2017-12-03T15:23:13.814Z,20.80
2017-12-03T15:25:42.077Z,20.85
2017-12-03T15:28:10.311Z,17.10
2017-12-03T15:30:37.763Z,20.10
2017-12-03T15:33:06.012Z,19.02
2017-12-03T15:35:33.501Z,22.60
2017-12-03T15:38:00.982Z,21.77
2017-12-03T15:40:28.481Z,23.20
2017-12-03T15:42:55.944Z,24.50
2017-12-03T15:45:23.404Z,23.00
2017-12-03T15:47:51.740Z,23.12
2017-12-03T15:50:19.204Z,22.23
2017-12-03T15:52:46.684Z,23.12
2017-12-03T15:55:14.940Z,25.17
2017-12-03T15:57:42.401Z,23.65
2017-12-03T16:00:10.627Z,25.12
2017-12-03T16:02:38.093Z,23.87
2017-12-03T16:05:06.359Z,23.92
2017-12-03T16:07:34.585Z,25.62
2017-12-03T16:10:02.208Z,25.20
2017-12-03T16:12:29.660Z,23.83
2017-12-03T16:14:57.137Z,25.70
2017-12-03T16:17:25.369Z,24.87
2017-12-03T16:19:52.824Z,28.12
2017-12-03T16:22:20.304Z,26.30
2017-12-03T16:24:47.780Z,23.42
2017-12-03T16:27:15.259Z,25.08
2017-12-03T16:29:43.483Z,28.65
2017-12-03T16:32:11.017Z,25.35
2017-12-03T16:34:38.507Z,28.83
2017-12-03T16:37:06.734Z,29.08
2017-12-03T16:39:34.208Z,27.13
2017-12-03T16:42:01.832Z,27.02
2017-12-03T16:44:29.300Z,28.50
2017-12-03T16:46:57.552Z,27.30
2017-12-03T16:49:25.024Z,26.17
2017-12-03T16:51:52.476Z,31.08
2017-12-03T16:54:19.935Z,28.60
2017-12-03T16:56:47.404Z,31.33
2017-12-03T16:59:14.865Z,30.40
2017-12-03T17:01:43.099Z,31.35
2017-12-03T17:04:10.567Z,31.65
2017-12-03T17:06:38.808Z,28.85
2017-12-03T17:09:06.377Z,29.42
2017-12-03T17:11:34.635Z,30.35
2017-12-03T17:14:02.907Z,31.25
2017-12-03T17:16:30.381Z,29.65
2017-12-03T17:18:57.840Z,30.88
2017-12-03T17:21:25.324Z,29.42
2017-12-03T17:23:53.561Z,30.55
2017-12-03T17:26:21.070Z,28.70
2017-12-03T17:28:48.708Z,28.90
2017-12-03T17:31:16.160Z,31.85
2017-12-03T17:33:43.620Z,28.12
2017-12-03T17:36:11.183Z,30.33
2017-12-03T17:38:38.647Z,29.40
2017-12-03T17:41:06.172Z,29.83
2017-12-03T17:43:33.644Z,31.35
2017-12-03T17:46:01.162Z,27.10
2017-12-03T17:48:29.384Z,28.62
2017-12-03T17:50:56.852Z,26.75
2017-12-03T17:53:24.320Z,28.48
2017-12-03T17:55:51.785Z,27.33
2017-12-03T17:58:19.250Z,25.12
2017-12-03T18:00:46.720Z,31.08
2017-12-03T18:03:14.239Z,26.50
2017-12-03T18:05:41.705Z,28.65
2017-12-03T18:08:09.164Z,32.10
2017-12-03T18:10:37.405Z,35.80
2017-12-03T18:13:05.675Z,28.62
2017-12-03T18:15:33.940Z,33.25
2017-12-03T18:18:02.203Z,33.10
2017-12-03T18:20:30.423Z,31.65
2017-12-03T18:22:57.889Z,31.45
2017-12-03T18:25:25.440Z,30.90
2017-12-03T18:27:53.668Z,31.20
2017-12-03T18:30:21.136Z,29.92
2017-12-03T18:32:49.416Z,29.95
2017-12-03T18:35:18.024Z,34.10
2017-12-03T18:37:45.479Z,32.35
2017-12-03T18:40:12.944Z,33.33
2017-12-03T18:42:40.414Z,32.22
2017-12-03T18:45:07.892Z,32.75
2017-12-03T18:47:35.353Z,34.33
2017-12-03T18:50:02.825Z,34.88
2017-12-03T18:52:31.055Z,33.60
2017-12-03T18:54:58.885Z,30.60
2017-12-03T18:57:26.336Z,29.15
2017-12-03T18:59:53.801Z,28.55
2017-12-03T19:02:21.307Z,35.53
2017-12-03T19:04:50.440Z,32.95
2017-12-03T19:07:18.713Z,34.65
2017-12-03T19:09:46.240Z,39.05
2017-12-03T19:12:14.612Z,33.70
2017-12-03T19:14:42.855Z,35.63
2017-12-03T19:17:10.324Z,33.70
2017-12-03T19:19:37.783Z,30.48
2017-12-03T19:22:05.256Z,30.83
2017-12-03T19:27:31.436Z,32.00
2017-12-03T19:29:58.896Z,31.40
2017-12-03T19:32:26.449Z,34.17
2017-12-03T19:34:54.680Z,33.75
2017-12-03T19:37:22.149Z,33.72
2017-12-03T19:39:50.405Z,32.17
2017-12-03T19:42:18.633Z,37.58
2017-12-03T19:44:46.100Z,31.95
2017-12-03T19:47:13.656Z,35.00
2017-12-03T19:49:41.899Z,38.08
2017-12-03T19:52:09.368Z,35.10
2017-12-03T19:54:37.587Z,31.50
2017-12-03T19:57:05.066Z,33.30
2017-12-03T19:59:33.312Z,39.00
2017-12-03T20:02:01.532Z,31.87
2017-12-03T20:04:29.123Z,32.92
2017-12-03T20:06:57.352Z,31.98
2017-12-03T20:09:24.821Z,32.30
2017-12-03T20:11:53.068Z,38.10
2017-12-03T20:14:20.533Z,35.67
2017-12-03T20:16:48.789Z,32.85
2017-12-03T20:19:17.040Z,33.60
2017-12-03T20:21:45.265Z,35.20
2017-12-03T20:24:12.815Z,36.50
2017-12-03T20:26:40.269Z,34.65
2017-12-03T20:29:07.725Z,29.45
2017-12-03T20:31:35.987Z,28.98
2017-12-03T20:34:04.199Z,33.10
2017-12-03T20:36:31.665Z,31.55
2017-12-03T20:38:59.132Z,31.20
2017-12-03T20:41:27.376Z,33.33
2017-12-03T20:43:54.840Z,35.22
2017-12-03T20:46:23.057Z,33.47
2017-12-03T20:48:50.519Z,32.13
2017-12-03T20:51:17.990Z,32.97
2017-12-03T20:53:46.229Z,34.50
2017-12-03T20:56:14.452Z,35.47
2017-12-03T20:58:41.928Z,33.80
2017-12-03T21:01:09.416Z,35.38
2017-12-03T21:03:36.929Z,35.30
2017-12-03T21:06:05.178Z,31.95
2017-12-03T21:08:32.724Z,30.23
2017-12-03T21:11:00.980Z,30.48
2017-12-03T21:13:29.264Z,30.77
2017-12-03T21:15:56.788Z,32.55
2017-12-03T21:18:25.044Z,32.10
2017-12-03T21:20:52.496Z,33.85
2017-12-03T21:23:20.748Z,32.65
2017-12-03T21:25:48.292Z,33.90
2017-12-03T21:28:16.560Z,33.10
2017-12-03T21:30:44.804Z,32.28
2017-12-03T21:33:12.260Z,31.23
2017-12-03T21:35:41.587Z,32.35
2017-12-03T21:38:09.140Z,31.05
2017-12-03T21:40:38.171Z,32.17
2017-12-03T21:43:05.718Z,36.25
2017-12-03T21:45:33.253Z,36.65
2017-12-03T21:48:01.480Z,31.37
2017-12-03T21:50:29.519Z,30.52
2017-12-03T21:52:57.000Z,34.13
2017-12-03T21:55:24.460Z,32.30
2017-12-03T21:57:52.688Z,36.25
2017-12-03T22:00:20.152Z,29.23
2017-12-03T22:02:48.376Z,35.30
2017-12-03T22:05:15.848Z,35.63
2017-12-03T22:07:44.080Z,34.70
2017-12-03T22:10:11.535Z,28.85
2017-12-03T22:12:41.138Z,30.92
2017-12-03T22:15:08.722Z,30.20
2017-12-03T22:17:36.189Z,34.03
2017-12-03T22:20:03.663Z,32.35
2017-12-03T22:22:31.416Z,33.45
2017-12-03T22:24:59.691Z,29.45
2017-12-03T22:27:27.172Z,30.77
2017-12-03T22:29:54.663Z,32.63
2017-12-03T22:32:22.891Z,32.55
2017-12-03T22:34:50.357Z,30.17
2017-12-03T22:37:18.723Z,28.92
2017-12-03T22:39:46.947Z,30.60
2017-12-03T22:42:14.404Z,31.30
2017-12-03T22:44:41.888Z,28.50
2017-12-03T22:47:09.341Z,30.37
2017-12-03T22:49:36.811Z,30.50
2017-12-03T22:52:04.268Z,33.53
2017-12-03T22:54:31.738Z,29.70
2017-12-03T22:56:59.968Z,28.58
2017-12-03T22:59:27.449Z,31.67
2017-12-03T23:01:54.924Z,30.98
2017-12-03T23:04:30.388Z,29.70
2017-12-03T23:06:58.608Z,29.27
2017-12-03T23:09:26.447Z,26.85
2017-12-03T23:11:53.915Z,29.25
2017-12-03T23:14:21.372Z,29.70
2017-12-03T23:16:49.646Z,28.70
2017-12-03T23:19:17.867Z,28.00
2017-12-03T23:21:45.329Z,26.15
2017-12-03T23:24:12.800Z,28.12
2017-12-03T23:26:41.020Z,26.20
2017-12-03T23:29:08.481Z,27.42
2017-12-03T23:31:35.965Z,32.20
2017-12-03T23:34:03.416Z,29.55
2017-12-03T23:36:30.892Z,28.80
2017-12-03T23:38:58.447Z,25.17
2017-12-03T23:41:25.901Z,29.90
2017-12-03T23:43:54.160Z,27.70
2017-12-03T23:46:22.380Z,30.50
2017-12-03T23:48:49.860Z,27.77
2017-12-03T23:51:18.096Z,28.00
2017-12-03T23:53:45.660Z,30.80
2017-12-03T23:56:13.875Z,29.75
2017-12-03T23:58:41.360Z,30.17
